createdAt,value
2022-08-17T00:00:49.437Z,25.96
2022-08-17T00:03:28.588Z,25.95
2022-08-17T00:06:08.617Z,25.92
2022-08-17T00:08:49.234Z,25.89
2022-08-17T00:11:22.824Z,25.86
2022-08-17T00:14:00.935Z,25.84
2022-08-17T00:16:56.677Z,25.81
2022-08-17T00:19:29.942Z,25.79
2022-08-17T00:22:34.522Z,25.75
2022-08-17T00:24:54.962Z,25.70
2022-08-17T00:27:26.926Z,25.67
2022-08-17T00:29:59.003Z,25.65
2022-08-17T00:33:11.926Z,25.62
2022-08-17T00:35:39.247Z,25.59
2022-08-17T00:38:12.199Z,25.57
2022-08-17T00:40:50.517Z,25.54
2022-08-17T00:43:28.821Z,25.50
2022-08-17T00:46:06.614Z,25.48
2022-08-17T00:48:39.096Z,25.45
2022-08-17T00:51:20.150Z,25.42
2022-08-17T00:54:18.871Z,25.40
2022-08-17T00:57:04.396Z,25.36
2022-08-17T00:59:41.705Z,25.35
2022-08-17T01:02:15.335Z,25.33
2022-08-17T01:04:49.352Z,25.29
2022-08-17T01:07:23.425Z,25.27
2022-08-17T01:09:55.488Z,25.26
2022-08-17T01:12:28.601Z,25.23
2022-08-17T01:15:00.567Z,25.21
2022-08-17T01:17:33.602Z,25.17
2022-08-17T01:20:05.867Z,25.16
2022-08-17T01:22:38.030Z,25.14
2022-08-17T01:25:11.576Z,25.13
2022-08-17T01:27:43.899Z,25.11
2022-08-17T01:30:57.829Z,25.09
2022-08-17T01:33:11.441Z,25.09
2022-08-17T01:35:43.459Z,25.06
2022-08-17T01:38:17.144Z,25.05
2022-08-17T01:41:07.018Z,25.01
2022-08-17T01:43:53.783Z,24.97
2022-08-17T01:46:31.045Z,24.92
2022-08-17T01:49:08.294Z,24.89
2022-08-17T01:51:41.463Z,24.85
2022-08-17T01:54:17.230Z,24.82
2022-08-17T01:56:51.335Z,24.83
2022-08-17T01:59:23.293Z,24.81
2022-08-17T02:01:55.291Z,24.79
2022-08-17T02:04:27.620Z,24.78
2022-08-17T02:06:59.754Z,24.76
2022-08-17T02:09:32.654Z,24.74
2022-08-17T02:12:39.249Z,24.73
2022-08-17T02:14:57.599Z,24.71
2022-08-17T02:17:29.495Z,24.69
2022-08-17T02:20:01.973Z,24.67
2022-08-17T02:22:36.230Z,24.66
2022-08-17T02:25:10.147Z,24.64
2022-08-17T02:27:42.509Z,24.64
2022-08-17T02:31:02.094Z,24.64
2022-08-17T02:33:11.553Z,24.63
2022-08-17T02:35:53.760Z,24.60
2022-08-17T02:38:25.977Z,24.58
2022-08-17T02:40:59.185Z,24.56
2022-08-17T02:43:31.678Z,24.54
2022-08-17T02:46:03.928Z,24.54
2022-08-17T02:48:35.960Z,24.54
2022-08-17T02:51:09.125Z,24.53
2022-08-17T02:53:41.253Z,24.53
2022-08-17T02:56:13.374Z,24.52
2022-08-17T02:58:46.373Z,24.52
2022-08-17T03:01:18.548Z,24.51
2022-08-17T03:03:50.550Z,24.50
2022-08-17T03:06:22.823Z,24.48
2022-08-17T03:08:54.767Z,24.50
2022-08-17T03:11:26.748Z,24.48
2022-08-17T03:13:59.175Z,24.48
2022-08-17T03:16:31.255Z,24.47
2022-08-17T03:19:03.781Z,24.46
2022-08-17T03:21:35.891Z,24.43
2022-08-17T03:24:09.206Z,24.40
2022-08-17T03:26:41.174Z,24.39
2022-08-17T03:29:18.865Z,24.36
2022-08-17T03:31:50.771Z,24.34
2022-08-17T03:34:22.769Z,24.32
2022-08-17T03:36:55.032Z,24.32
2022-08-17T03:39:27.066Z,24.30
2022-08-17T03:42:31.432Z,24.29
2022-08-17T03:45:03.267Z,24.27
2022-08-17T03:47:54.071Z,24.25
2022-08-17T03:50:55.490Z,24.23
2022-08-17T03:53:45.811Z,24.18
2022-08-17T03:56:36.591Z,24.16
2022-08-17T03:59:21.190Z,24.13
2022-08-17T04:01:56.010Z,24.08
2022-08-17T04:04:28.055Z,24.07
2022-08-17T04:07:00.094Z,24.05
2022-08-17T04:09:31.980Z,24.04
2022-08-17T04:12:05.141Z,24.02
2022-08-17T04:14:53.464Z,24.03
2022-08-17T04:17:28.305Z,24.05
2022-08-17T04:20:00.290Z,24.07
2022-08-17T04:22:34.386Z,24.10
2022-08-17T04:25:06.366Z,24.10
2022-08-17T04:27:38.354Z,24.10
2022-08-17T04:30:11.764Z,24.10
2022-08-17T04:33:04.698Z,24.09
2022-08-17T04:35:43.944Z,24.09
2022-08-17T04:38:25.911Z,24.09
2022-08-17T04:41:17.746Z,24.09
2022-08-17T04:43:54.912Z,24.09
2022-08-17T04:46:35.366Z,24.09
2022-08-17T04:49:10.518Z,24.09
2022-08-17T04:51:54.705Z,24.10
2022-08-17T04:54:28.987Z,24.12
2022-08-17T04:57:01.111Z,24.14
2022-08-17T04:59:33.064Z,24.16
2022-08-17T05:02:05.116Z,24.17
2022-08-17T05:04:37.141Z,24.18
2022-08-17T05:07:09.151Z,24.19
2022-08-17T05:09:41.103Z,24.20
2022-08-17T05:12:13.276Z,24.21
2022-08-17T05:14:45.386Z,24.23
2022-08-17T05:17:17.568Z,24.24
2022-08-17T05:19:51.941Z,24.26
2022-08-17T05:22:24.194Z,24.28
2022-08-17T05:24:56.403Z,24.32
2022-08-17T05:27:35.314Z,24.36
2022-08-17T05:30:08.496Z,24.40
2022-08-17T05:32:40.605Z,24.43
2022-08-17T05:35:12.654Z,24.44
2022-08-17T05:37:45.167Z,24.47
2022-08-17T05:40:17.791Z,24.47
2022-08-17T05:42:49.910Z,24.49
2022-08-17T05:45:39.988Z,24.52
2022-08-17T05:48:14.107Z,24.53
2022-08-17T05:51:06.942Z,24.54
2022-08-17T05:53:58.693Z,24.56
2022-08-17T05:56:50.912Z,24.58
2022-08-17T05:59:42.732Z,24.61
2022-08-17T06:02:29.578Z,24.63
2022-08-17T06:05:10.996Z,24.68
2022-08-17T06:08:00.856Z,24.71
2022-08-17T06:10:42.921Z,24.74
2022-08-17T06:13:32.787Z,24.81
2022-08-17T06:16:28.155Z,24.89
2022-08-17T06:19:12.297Z,24.98
2022-08-17T06:21:48.100Z,25.04
2022-08-17T06:24:43.104Z,25.07
2022-08-17T06:27:33.217Z,25.12
2022-08-17T06:30:13.163Z,25.20
2022-08-17T06:32:48.563Z,25.27
2022-08-17T06:35:34.145Z,25.34
2022-08-17T06:38:37.601Z,25.40
2022-08-17T06:41:11.173Z,25.45
2022-08-17T06:44:11.589Z,25.52
2022-08-17T06:47:09.065Z,25.58
2022-08-17T06:49:55.281Z,25.64
2022-08-17T06:52:45.763Z,25.72
2022-08-17T06:55:26.434Z,25.87
2022-08-17T06:58:02.123Z,26.08
2022-08-17T07:00:49.360Z,26.29
2022-08-17T07:03:27.325Z,26.41
2022-08-17T07:06:05.765Z,26.47
2022-08-17T07:09:04.510Z,26.51
2022-08-17T07:11:54.254Z,26.53
2022-08-17T07:14:48.438Z,26.54
2022-08-17T07:17:22.529Z,26.57
2022-08-17T07:20:23.161Z,26.59
2022-08-17T07:23:24.414Z,26.61
2022-08-17T07:26:08.038Z,26.64
2022-08-17T07:28:41.182Z,26.69
2022-08-17T07:31:17.117Z,26.76
2022-08-17T07:34:04.574Z,26.87
2022-08-17T07:36:36.690Z,26.98
2022-08-17T07:39:09.759Z,27.07
2022-08-17T07:41:57.430Z,27.17
2022-08-17T07:44:30.893Z,27.27
2022-08-17T07:47:21.730Z,27.35
2022-08-17T07:49:53.807Z,27.44
2022-08-17T07:52:50.966Z,27.51
2022-08-17T07:55:35.392Z,27.58
2022-08-17T07:58:07.753Z,27.65
2022-08-17T08:00:39.927Z,27.71
2022-08-17T08:03:23.707Z,27.77
2022-08-17T08:06:02.239Z,27.87
2022-08-17T08:08:42.429Z,27.93
2022-08-17T08:11:16.563Z,27.98
2022-08-17T08:13:52.745Z,28.05
2022-08-17T08:16:29.254Z,28.12
2022-08-17T08:19:02.075Z,28.20
2022-08-17T08:21:50.582Z,28.28
2022-08-17T08:24:48.062Z,28.38
2022-08-17T08:27:49.660Z,28.47
2022-08-17T08:30:22.512Z,28.54
2022-08-17T08:33:27.200Z,28.59
2022-08-17T08:36:10.146Z,28.61
2022-08-17T08:38:47.457Z,28.60
2022-08-17T08:41:44.908Z,28.59
2022-08-17T08:45:00.719Z,28.57
2022-08-17T08:47:55.297Z,28.57
2022-08-17T08:50:42.967Z,28.53
2022-08-17T08:53:43.767Z,28.55
2022-08-17T08:56:28.377Z,28.56
2022-08-17T08:59:04.355Z,28.62
2022-08-17T09:01:44.193Z,28.64
2022-08-17T09:04:44.965Z,28.72
2022-08-17T09:07:57.367Z,28.80
2022-08-17T09:10:35.317Z,28.89
2022-08-17T09:13:16.944Z,28.93
2022-08-17T09:15:57.316Z,28.96
2022-08-17T09:19:03.367Z,29.00
2022-08-17T09:21:48.493Z,29.03
2022-08-17T09:24:25.934Z,29.08
2022-08-17T09:27:03.153Z,29.12
2022-08-17T09:29:40.412Z,29.14
2022-08-17T09:32:21.460Z,29.20
2022-08-17T09:35:00.249Z,29.26
2022-08-17T09:37:41.889Z,29.31
2022-08-17T09:40:39.814Z,29.35
2022-08-17T09:43:35.856Z,29.38
2022-08-17T09:46:16.841Z,29.41
2022-08-17T09:48:55.428Z,29.44
2022-08-17T09:51:40.552Z,29.47
2022-08-17T09:54:44.667Z,29.49
2022-08-17T09:57:47.514Z,29.57
2022-08-17T10:00:27.909Z,29.68
2022-08-17T10:03:25.401Z,29.75
2022-08-17T10:06:14.459Z,29.83
2022-08-17T10:08:55.410Z,29.89
2022-08-17T10:12:01.281Z,29.95
2022-08-17T10:14:55.898Z,30.05
2022-08-17T10:17:53.417Z,30.11
2022-08-17T10:20:33.256Z,30.21
2022-08-17T10:23:35.140Z,30.27
2022-08-17T10:26:21.240Z,30.33
2022-08-17T10:29:03.912Z,30.39
2022-08-17T10:31:45.556Z,30.47
2022-08-17T10:34:45.721Z,30.53
2022-08-17T10:37:33.926Z,30.59
2022-08-17T10:40:47.144Z,30.67
2022-08-17T10:43:37.278Z,30.72
2022-08-17T10:46:30.831Z,30.74
2022-08-17T10:49:21.598Z,30.76
2022-08-17T10:51:58.803Z,30.78
2022-08-17T10:54:41.091Z,30.77
2022-08-17T10:57:46.774Z,30.78
2022-08-17T11:00:18.872Z,30.78
2022-08-17T11:02:53.314Z,30.77
2022-08-17T11:05:34.566Z,30.78
2022-08-17T11:08:40.749Z,30.81
2022-08-17T11:11:34.540Z,30.80
2022-08-17T11:14:11.142Z,30.85
2022-08-17T11:16:53.411Z,30.91
2022-08-17T11:20:06.908Z,30.97
2022-08-17T11:22:47.800Z,30.98
2022-08-17T11:25:22.662Z,30.99
2022-08-17T11:28:06.891Z,31.00
2022-08-17T11:30:41.759Z,31.01
2022-08-17T11:33:36.720Z,31.05
2022-08-17T11:36:18.345Z,31.09
2022-08-17T11:38:57.947Z,31.12
2022-08-17T11:41:48.910Z,31.22
2022-08-17T11:44:37.851Z,31.36
2022-08-17T11:48:23.852Z,31.51
2022-08-17T11:51:12.745Z,31.68
2022-08-17T11:53:45.807Z,31.77
2022-08-17T11:56:35.013Z,31.77
2022-08-17T11:59:36.470Z,31.72
2022-08-17T12:02:32.907Z,31.64
2022-08-17T12:05:26.094Z,31.63
2022-08-17T12:08:12.439Z,31.80
2022-08-17T12:11:01.077Z,32.08
2022-08-17T12:13:43.956Z,32.26
2022-08-17T12:16:17.562Z,32.31
2022-08-17T12:19:02.503Z,32.31
2022-08-17T12:21:48.881Z,32.38
2022-08-17T12:24:39.481Z,32.47
2022-08-17T12:27:13.254Z,32.60
2022-08-17T12:29:45.702Z,32.55
2022-08-17T12:32:20.245Z,32.44
2022-08-17T12:34:52.529Z,32.24
2022-08-17T12:37:32.293Z,32.04
2022-08-17T12:40:17.987Z,31.89
2022-08-17T12:43:05.329Z,31.82
2022-08-17T12:45:42.101Z,31.69
2022-08-17T12:48:23.003Z,31.54
2022-08-17T12:51:02.904Z,31.41
2022-08-17T12:53:38.456Z,31.28
2022-08-17T12:56:12.164Z,31.19
2022-08-17T12:58:54.150Z,31.10
2022-08-17T13:01:26.264Z,31.02
2022-08-17T13:04:00.201Z,30.96
2022-08-17T13:06:34.781Z,30.93
2022-08-17T13:09:21.390Z,30.92
2022-08-17T13:11:59.562Z,30.89
2022-08-17T13:14:31.641Z,30.86
2022-08-17T13:17:09.886Z,30.84
2022-08-17T13:19:49.880Z,30.81
2022-08-17T13:22:25.979Z,30.80
2022-08-17T13:25:08.457Z,30.79
2022-08-17T13:27:42.281Z,30.83
2022-08-17T13:30:23.417Z,30.80
2022-08-17T13:32:57.258Z,30.76
2022-08-17T13:35:44.160Z,30.74
2022-08-17T13:38:47.074Z,30.77
2022-08-17T13:41:34.987Z,30.80
2022-08-17T13:44:37.173Z,30.81
2022-08-17T13:47:18.647Z,30.83
2022-08-17T13:49:51.224Z,30.83
2022-08-17T13:52:45.146Z,30.87
2022-08-17T13:55:22.092Z,30.91
2022-08-17T13:58:00.925Z,30.92
2022-08-17T14:00:39.567Z,30.89
2022-08-17T14:03:12.175Z,30.89
2022-08-17T14:05:46.070Z,30.89
2022-08-17T14:08:20.173Z,30.93
2022-08-17T14:10:58.183Z,30.97
2022-08-17T14:13:30.227Z,30.96
2022-08-17T14:16:02.308Z,30.94
2022-08-17T14:18:55.644Z,30.96
2022-08-17T14:21:26.439Z,30.96
2022-08-17T14:23:58.529Z,30.99
2022-08-17T14:26:30.852Z,31.01
2022-08-17T14:29:02.946Z,31.05
2022-08-17T14:31:37.543Z,31.08
2022-08-17T14:34:10.746Z,31.13
2022-08-17T14:36:45.514Z,31.15
2022-08-17T14:39:20.936Z,31.14
2022-08-17T14:41:53.244Z,31.10
2022-08-17T14:44:25.233Z,31.04
2022-08-17T14:46:57.300Z,31.02
2022-08-17T14:49:30.206Z,31.01
2022-08-17T14:52:02.293Z,31.04
2022-08-17T14:54:34.736Z,31.08
2022-08-17T14:57:33.223Z,31.07
2022-08-17T15:00:00.210Z,31.06
2022-08-17T15:02:44.377Z,31.05
2022-08-17T15:05:17.425Z,31.02
2022-08-17T15:07:49.803Z,30.98
2022-08-17T15:10:22.198Z,30.97
2022-08-17T15:12:54.493Z,30.91
2022-08-17T15:15:27.210Z,30.88
2022-08-17T15:18:00.065Z,30.87
2022-08-17T15:20:33.224Z,30.86
2022-08-17T15:23:06.972Z,30.83
2022-08-17T15:25:39.001Z,30.80
2022-08-17T15:28:12.149Z,30.81
2022-08-17T15:30:45.131Z,30.77
2022-08-17T15:33:23.979Z,30.81
2022-08-17T15:36:01.654Z,30.83
2022-08-17T15:38:36.750Z,30.85
2022-08-17T15:41:13.667Z,30.82
2022-08-17T15:43:47.565Z,30.81
2022-08-17T15:46:22.093Z,30.83
2022-08-17T15:48:58.876Z,30.87
2022-08-17T15:51:32.871Z,30.91
2022-08-17T15:54:19.046Z,30.99
2022-08-17T15:56:54.207Z,31.02
2022-08-17T15:59:27.104Z,31.02
2022-08-17T16:03:15.300Z,31.01
2022-08-17T16:04:53.318Z,30.96
2022-08-17T16:07:26.959Z,30.88
2022-08-17T16:09:59.086Z,30.85
2022-08-17T16:12:31.289Z,30.81
2022-08-17T16:15:05.334Z,30.79
2022-08-17T16:17:39.802Z,30.77
2022-08-17T16:20:20.223Z,30.69
2022-08-17T16:22:54.523Z,30.59
2022-08-17T16:25:50.328Z,30.55
2022-08-17T16:28:29.877Z,30.48
2022-08-17T16:31:09.365Z,30.44
2022-08-17T16:33:41.769Z,30.34
2022-08-17T16:36:13.703Z,30.27
2022-08-17T16:38:46.721Z,30.21
2022-08-17T16:41:38.801Z,30.16
2022-08-17T16:44:21.437Z,30.15
2022-08-17T16:46:53.700Z,30.15
2022-08-17T16:49:36.929Z,30.15
2022-08-17T16:52:10.712Z,30.14
2022-08-17T16:54:44.506Z,30.14
2022-08-17T16:57:17.574Z,30.13
2022-08-17T16:59:51.498Z,30.13
2022-08-17T17:02:32.092Z,30.07
2022-08-17T17:05:13.090Z,30.03
2022-08-17T17:07:55.665Z,30.05
2022-08-17T17:10:40.715Z,30.06
2022-08-17T17:13:21.560Z,30.00
2022-08-17T17:16:12.404Z,29.91
2022-08-17T17:19:07.968Z,29.84
2022-08-17T17:22:12.219Z,29.79
2022-08-17T17:25:10.922Z,29.74
2022-08-17T17:27:43.245Z,29.73
2022-08-17T17:30:27.718Z,29.71
2022-08-17T17:33:06.895Z,29.65
2022-08-17T17:35:57.571Z,29.62
2022-08-17T17:38:34.291Z,29.55
2022-08-17T17:41:13.565Z,29.45
2022-08-17T17:43:49.421Z,29.35
2022-08-17T17:46:29.092Z,29.25
2022-08-17T17:49:01.442Z,29.15
2022-08-17T17:52:06.745Z,29.09
2022-08-17T17:54:56.539Z,29.03
2022-08-17T17:57:54.533Z,28.94
2022-08-17T18:00:35.499Z,28.86
2022-08-17T18:03:34.724Z,28.81
2022-08-17T18:06:08.108Z,28.78
2022-08-17T18:08:52.805Z,28.75
2022-08-17T18:11:44.202Z,28.70
2022-08-17T18:14:40.135Z,28.64
2022-08-17T18:17:12.623Z,28.57
2022-08-17T18:19:47.054Z,28.49
2022-08-17T18:22:21.825Z,28.39
2022-08-17T18:24:58.766Z,28.29
2022-08-17T18:27:37.521Z,28.18
2022-08-17T18:30:12.270Z,28.09
2022-08-17T18:32:46.544Z,27.94
2022-08-17T18:35:18.534Z,27.76
2022-08-17T18:37:53.860Z,27.54
2022-08-17T18:40:35.745Z,27.34
2022-08-17T18:43:14.225Z,27.18
2022-08-17T18:45:48.902Z,26.85
2022-08-17T18:48:20.892Z,26.24
2022-08-17T18:50:58.351Z,25.58
2022-08-17T18:53:41.133Z,25.09
2022-08-17T18:56:16.061Z,24.74
2022-08-17T18:59:12.540Z,24.53
2022-08-17T19:02:21.627Z,24.37
2022-08-17T19:05:10.035Z,24.27
2022-08-17T19:07:46.940Z,24.28
2022-08-17T19:10:26.023Z,24.38
2022-08-17T19:13:12.621Z,24.47
2022-08-17T19:16:14.001Z,24.58
2022-08-17T19:18:58.650Z,24.70
2022-08-17T19:21:36.317Z,24.77
2022-08-17T19:24:13.072Z,24.82
2022-08-17T19:26:57.656Z,24.84
2022-08-17T19:29:54.394Z,24.92
2022-08-17T19:32:29.916Z,25.01
2022-08-17T19:35:03.231Z,25.07
2022-08-17T19:37:54.752Z,25.13
2022-08-17T19:40:58.812Z,25.18
2022-08-17T19:44:13.771Z,25.11
2022-08-17T19:47:17.227Z,25.08
2022-08-17T19:50:41.690Z,25.08
2022-08-17T19:54:03.744Z,25.07
2022-08-17T19:56:49.129Z,25.03
2022-08-17T19:59:48.983Z,25.03
2022-08-17T20:02:29.037Z,25.02
2022-08-17T20:05:25.648Z,24.99
2022-08-17T20:08:14.757Z,24.95
2022-08-17T20:10:54.838Z,24.92
2022-08-17T20:13:33.975Z,24.93
2022-08-17T20:16:07.073Z,24.98
2022-08-17T20:18:52.466Z,25.02
2022-08-17T20:21:46.422Z,25.08
2022-08-17T20:24:28.578Z,25.06
2022-08-17T20:27:16.621Z,25.03
2022-08-17T20:30:13.049Z,25.02
2022-08-17T20:32:56.675Z,24.96
2022-08-17T20:35:39.110Z,24.95
2022-08-17T20:38:33.336Z,24.88
2022-08-17T20:41:11.821Z,24.82
2022-08-17T20:44:05.277Z,24.78
2022-08-17T20:46:37.920Z,24.73
2022-08-17T20:49:41.364Z,24.67
2022-08-17T20:52:17.725Z,24.68
2022-08-17T20:54:55.884Z,24.65
2022-08-17T20:57:33.459Z,24.63
2022-08-17T21:00:25.253Z,24.64
2022-08-17T21:03:21.982Z,24.64
2022-08-17T21:05:59.895Z,24.65
2022-08-17T21:08:41.329Z,24.67
2022-08-17T21:11:58.247Z,24.66
2022-08-17T21:14:59.725Z,24.66
2022-08-17T21:17:50.334Z,24.66
2022-08-17T21:21:03.734Z,24.64
2022-08-17T21:23:49.593Z,24.62
2022-08-17T21:26:38.924Z,24.62
2022-08-17T21:29:31.256Z,24.62
2022-08-17T21:32:05.250Z,24.60
2022-08-17T21:34:43.693Z,24.64
2022-08-17T21:37:38.140Z,24.68
2022-08-17T21:40:10.739Z,24.72
2022-08-17T21:42:50.578Z,24.76
2022-08-17T21:45:29.697Z,24.79
2022-08-17T21:48:15.005Z,24.85
2022-08-17T21:50:57.516Z,24.90
2022-08-17T21:53:44.686Z,24.91
2022-08-17T21:56:28.322Z,24.89
2022-08-17T21:59:06.572Z,24.89
2022-08-17T22:01:41.398Z,24.90
2022-08-17T22:04:33.627Z,24.91
2022-08-17T22:07:11.399Z,24.90
2022-08-17T22:09:48.115Z,24.79
2022-08-17T22:12:22.166Z,24.71
2022-08-17T22:15:04.111Z,24.59
2022-08-17T22:17:46.297Z,24.48
2022-08-17T22:20:20.010Z,24.43
2022-08-17T22:23:13.270Z,24.39
2022-08-17T22:26:03.981Z,24.38
2022-08-17T22:28:49.453Z,24.41
2022-08-17T22:31:24.630Z,24.42
2022-08-17T22:34:02.215Z,24.38
2022-08-17T22:36:35.120Z,24.38
2022-08-17T22:39:08.298Z,24.38
2022-08-17T22:42:00.181Z,24.38
2022-08-17T22:44:38.449Z,24.37
2022-08-17T22:47:19.062Z,24.32
2022-08-17T22:49:54.698Z,24.24
2022-08-17T22:52:58.683Z,24.16
2022-08-17T22:55:50.437Z,24.12
2022-08-17T22:58:42.689Z,24.08
2022-08-17T23:01:27.775Z,24.06
2022-08-17T23:04:05.935Z,24.02
2022-08-17T23:06:40.206Z,23.98
2022-08-17T23:09:12.188Z,23.93
2022-08-17T23:11:50.025Z,23.89
2022-08-17T23:14:22.581Z,23.87
2022-08-17T23:16:54.619Z,23.84
2022-08-17T23:19:28.356Z,23.85
2022-08-17T23:22:04.150Z,23.82
2022-08-17T23:24:42.364Z,23.83
2022-08-17T23:27:14.479Z,23.80
2022-08-17T23:29:47.146Z,23.77
2022-08-17T23:32:19.247Z,23.74
2022-08-17T23:34:51.243Z,23.74
2022-08-17T23:37:23.199Z,23.74
2022-08-17T23:39:55.383Z,23.74
2022-08-17T23:42:28.614Z,23.71
2022-08-17T23:45:01.225Z,23.66
2022-08-17T23:47:33.149Z,23.63
2022-08-17T23:50:05.737Z,23.56
2022-08-17T23:52:37.870Z,23.53
2022-08-17T23:55:10.433Z,23.51
2022-08-17T23:57:42.816Z,23.51
